Pittsburg, NH (03592)

1:51 PM EDT on July 23, 2016 (GMT -0400)
Hill Top View | | Change Station

Elev 1886 ft 45.06 °N, 71.33 °W | Updated 3 seconds ago

Rain
Rain
61.3 °F
Feels Like 61.3 °F
N
1.3
Wind Variable Wind from East
Gusts 2.5 mph

Today
High -- | Low -- °F
--% Chance of Precip.
Yesterday
High -- | Low -- °F
Precip. -- in
Pressure 29.77 in
Visibility 10.0 miles
Clouds Scattered Clouds 4500 ft
Scattered Clouds 6500 ft
Scattered Clouds 11000 ft
Dew Point 60 °F
Humidity 97%
Rainfall 0.27 in
Snow Depth Not available.
5:21 AM 8:21 PM
Waning Gibbous, 83% visible
SPECI KBML 231727Z AUTO VRB04KT 10SM VCTS SCT045 SCT065 SCT110 27/16 A2977 RMK AO2 LTG DSNT N AND W T02720156
Pressure 29.77 in
Visibility 10.0 miles
Clouds Scattered Clouds 4500 ft
Scattered Clouds 6500 ft
Scattered Clouds 11000 ft
Dew Point 60 °F
Humidity 97%
Rainfall 0.27 in
Snow Depth Not available.
5:21 AM 8:21 PM
Waning Gibbous, 83% visible
SPECI KBML 231727Z AUTO VRB04KT 10SM VCTS SCT045 SCT065 SCT110 27/16 A2977 RMK AO2 LTG DSNT N AND W T02720156

10-Day Weather Forecast

Almanac

Astronomy

Jul. 23, 2016 Rise Set
Actual Time
Civil Twilight
Nautical Twilight
Astronomical Twilight
Moon
Length of Visible Light
Length of Day
Tomorrow will be .
, % of the Moon is Illuminated

Today's Extremes

State Highs State Lows

Community

WunderPhotos

Upload Photos

1,926,878 photos uploaded!

WunderBlog® & News

Nearby

Air Quality

  Air Quality AQ Index Pollutant
Not available.

Snow Depth

Station Depth Elevation

Earthquake Activity

City Distance Mag. Time & Date
Minimum magnitude displayed is 2.5.

Coastal Water Temperatures

Place Temperature

Stations

Nearby Weather Stations

Station Location Temp. Windchill Dew Point Humidity Wind Precip. Elev Updated Type
                   

Watches & Warnings

There are currently no watches in effect.